Time;durP1;ratioP1;P1;durP2;ratioP2;P2;SDS_P1;SDS_P2;PMS_P1;PMS_P2;Temp;Humidity;BMP_temperature;BMP_pressure;BME280_temperature;BME280_humidity;BME280_pressure;Samples;Min_cycle;Max_cycle;Signal;HPM_P1;HPM_P2
2021/03/24 00:01:16;;;;;;;42.42;32.08;;;3.70;49.60;5.50;101455.00;;;;5066257;28;20958;-85
2021/03/24 00:03:44;;;;;;;40.67;30.23;;;3.70;50.30;5.40;101465.00;;;;5099361;28;20438;-84
2021/03/24 00:06:14;;;;;;;42.97;30.63;;;3.60;50.80;5.40;101460.00;;;;5106451;28;21178;-83
2021/03/24 00:08:43;;;;;;;41.97;31.48;;;3.60;51.40;5.40;67441.00;;;;5085535;28;20534;-82
2021/03/24 00:11:13;;;;;;;43.30;31.25;;;3.60;51.90;5.30;101446.00;;;;5084694;28;20434;-82
2021/03/24 00:13:41;;;;;;;42.25;29.77;;;3.50;51.40;5.30;101447.00;;;;5080975;28;20511;-83
2021/03/24 00:16:10;;;;;;;44.90;31.23;;;3.50;52.40;5.30;101459.00;;;;5097781;28;20450;-84
2021/03/24 00:18:38;;;;;;;46.35;31.50;;;3.40;53.20;5.20;101458.00;;;;5094477;28;20464;-83
2021/03/24 00:21:07;;;;;;;45.50;32.00;;;3.40;54.20;5.20;101445.00;;;;5078815;28;20427;-85
2021/03/24 00:23:36;;;;;;;43.13;30.83;;;3.40;55.10;5.10;101466.00;;;;5077290;28;20520;-82
2021/03/24 00:26:04;;;;;;;45.83;29.98;;;3.40;55.10;5.10;101451.00;;;;5081863;28;21581;-83
2021/03/24 00:28:31;;;;;;;40.33;29.52;;;3.40;55.90;217.30;158852.00;;;;5082616;28;20413;-83
2021/03/24 00:30:59;;;;;;;41.07;30.20;;;3.30;55.90;5.10;101452.00;;;;5081766;28;20421;-81
2021/03/24 00:33:27;;;;;;;44.95;31.40;;;3.30;55.00;5.00;101449.00;;;;5083776;28;20823;-81
2021/03/24 00:35:56;;;;;;;43.30;30.63;;;3.20;54.90;5.00;101448.00;;;;5081757;28;20417;-82
2021/03/24 00:38:26;;;;;;;39.90;30.17;;;3.20;56.70;5.00;101454.00;;;;5076214;28;20488;-83
2021/03/24 00:40:57;;;;;;;42.20;32.20;;;3.20;57.70;5.00;101471.00;;;;5084832;28;20396;-85
2021/03/24 00:43:26;;;;;;;43.83;32.22;;;3.20;57.60;5.00;101460.00;;;;5091546;28;20911;-83
2021/03/24 00:45:55;;;;;;;43.50;31.87;;;3.20;58.00;4.90;101463.00;;;;5089983;28;20416;-82
2021/03/24 00:48:25;;;;;;;47.00;32.55;;;3.20;57.50;4.90;101455.00;;;;5088046;28;20428;-81
2021/03/24 00:50:53;;;;;;;44.00;31.98;;;3.10;57.70;217.30;158742.00;;;;5086319;28;20411;-84
2021/03/24 00:53:21;;;;;;;44.72;31.33;;;3.10;58.70;4.80;101443.00;;;;5097876;28;20474;-81
2021/03/24 00:55:50;;;;;;;45.80;31.75;;;3.10;59.20;4.80;101459.00;;;;5084533;28;20442;-82
2021/03/24 00:58:20;;;;;;;45.90;33.25;;;3.10;59.70;4.80;101449.00;;;;5083303;28;20947;-81
2021/03/24 01:00:49;;;;;;;44.53;33.22;;;3.00;59.30;4.70;101446.00;;;;5101409;28;20454;-81
2021/03/24 01:03:18;;;;;;;45.60;34.15;;;3.00;59.30;4.80;101443.00;;;;5086691;28;20443;-83
2021/03/24 01:05:47;;;;;;;44.83;32.05;;;3.00;60.10;4.80;101444.00;;;;5085898;28;20498;-82
2021/03/24 01:08:18;;;;;;;49.10;33.97;;;3.00;60.70;4.80;101437.00;;;;5086384;28;20469;-81
2021/03/24 01:10:46;;;;;;;46.53;31.92;;;3.00;60.70;4.70;101433.00;;;;5082016;28;20497;-84
2021/03/24 01:13:15;;;;;;;44.90;32.65;;;3.00;60.80;4.70;101441.00;;;;5068909;28;20427;-82
2021/03/24 01:15:43;;;;;;;48.93;32.47;;;3.00;60.80;4.70;101446.00;;;;5076359;28;21061;-83
2021/03/24 01:18:11;;;;;;;47.83;33.30;;;3.00;60.40;4.70;101432.00;;;;5077710;28;20423;-82
2021/03/24 01:20:41;;;;;;;42.35;32.70;;;2.90;60.10;4.70;101430.00;;;;5077878;28;20414;-82
2021/03/24 01:23:10;;;;;;;55.53;35.33;;;2.90;60.40;4.70;101427.00;;;;5103169;28;20605;-82
2021/03/24 01:25:39;;;;;;;47.75;33.72;;;2.90;61.00;4.70;67292.00;;;;5081701;28;20412;-83
2021/03/24 01:28:15;;;;;;;44.55;33.90;;;2.90;61.50;4.60;101445.00;;;;5079227;28;20430;-80
2021/03/24 01:30:43;;;;;;;43.47;32.13;;;2.80;61.70;4.60;101452.00;;;;5081131;28;21011;-84
2021/03/24 01:33:11;;;;;;;47.70;33.45;;;2.80;62.00;4.60;101443.00;;;;5081946;28;20425;-82
2021/03/24 01:35:39;;;;;;;49.95;33.28;;;2.90;62.40;4.60;101439.00;;;;5089366;28;20424;-81
2021/03/24 01:38:31;;;;;;;47.90;34.90;;;2.90;62.40;4.60;101447.00;;;;5079514;28;20425;-82
2021/03/24 01:41:01;;;;;;;48.10;34.40;;;2.90;62.40;4.50;101436.00;;;;5087950;28;20440;-83
2021/03/24 01:43:31;;;;;;;46.33;34.50;;;2.90;62.50;4.60;101437.00;;;;5080259;28;20533;-81
2021/03/24 01:46:43;;;;;;;46.10;33.90;;;2.90;62.60;4.50;101431.00;;;;5078501;28;20431;-81
2021/03/24 01:49:21;;;;;;;46.63;33.57;;;2.80;62.00;4.50;101446.00;;;;5097089;28;20500;-81
2021/03/24 01:51:52;;;;;;;46.38;33.28;;;2.80;61.60;4.50;101436.00;;;;5081314;28;20518;-83
2021/03/24 01:54:25;;;;;;;47.65;34.70;;;2.80;61.70;4.40;101442.00;;;;5079743;28;20417;-82
2021/03/24 01:57:00;;;;;;;46.00;33.60;;;2.70;61.40;4.40;101417.00;;;;5079349;28;20520;-84
2021/03/24 01:59:28;;;;;;;43.10;32.00;;;2.70;61.50;4.40;101426.00;;;;5081656;28;20418;-83
2021/03/24 02:01:57;;;;;;;48.90;32.50;;;2.70;62.50;4.40;101430.00;;;;5102510;28;20608;-81
2021/03/24 02:04:26;;;;;;;45.65;32.67;;;2.70;63.30;4.40;101420.00;;;;5102320;28;20416;-81
2021/03/24 02:07:00;;;;;;;43.17;31.33;;;2.80;63.80;4.40;101429.00;;;;5088281;28;20408;-83
2021/03/24 02:09:36;;;;;;;48.05;33.35;;;2.70;63.30;4.30;101426.00;;;;5098749;28;20400;-82
2021/03/24 02:12:11;;;;;;;47.67;33.55;;;2.70;63.70;4.30;101433.00;;;;5089340;28;20434;-83
2021/03/24 02:14:45;;;;;;;43.37;29.43;;;2.70;63.70;4.00;101435.00;;;;5087645;28;20196;-82
2021/03/24 02:17:15;;;;;;;46.53;33.60;;;2.50;63.80;4.10;101430.00;;;;5078187;28;20465;-82
2021/03/24 02:19:51;;;;;;;48.50;33.42;;;2.40;64.50;4.20;101411.00;;;;5092326;28;20412;-83
2021/03/24 02:22:26;;;;;;;45.90;34.00;;;2.50;65.00;217.30;158493.00;;;;5092997;28;20403;-84
2021/03/24 02:25:04;;;;;;;49.08;32.90;;;2.60;65.70;4.20;101417.00;;;;5101324;28;20454;-83
2021/03/24 02:27:35;;;;;;;46.87;29.70;;;2.60;64.20;4.00;101435.00;;;;5108714;28;20203;-83
2021/03/24 02:30:09;;;;;;;51.23;30.73;;;2.30;65.10;3.80;101420.00;;;;5111437;28;20461;-83
2021/03/24 02:32:43;;;;;;;46.60;29.83;;;2.20;66.80;3.70;101417.00;;;;5109351;28;20486;-81
2021/03/24 02:35:16;;;;;;;43.53;29.93;;;2.10;68.00;3.70;101425.00;;;;5094944;28;20442;-82
2021/03/24 02:37:44;;;;;;;48.35;35.17;;;2.00;68.80;3.90;101432.00;;;;5091454;28;20454;-82
2021/03/24 02:40:17;;;;;;;48.70;35.78;;;2.20;68.90;4.00;101427.00;;;;5099057;28;20495;-80
2021/03/24 02:42:48;;;;;;;45.35;36.00;;;2.40;68.00;4.10;101417.00;;;;5073037;28;20409;-81
2021/03/24 02:45:20;;;;;;;50.83;37.20;;;2.40;66.60;4.10;101423.00;;;;5081241;28;20494;-81
2021/03/24 02:47:50;;;;;;;49.53;38.00;;;2.50;65.50;4.10;101422.00;;;;5075408;28;20484;-81
2021/03/24 02:50:21;;;;;;;49.38;35.53;;;2.50;64.90;4.10;101416.00;;;;5083000;28;20427;-82
2021/03/24 02:52:49;;;;;;;50.20;36.70;;;2.40;64.40;4.10;101405.00;;;;5104798;28;20439;-83
2021/03/24 02:55:18;;;;;;;47.83;35.83;;;2.40;64.50;4.10;67156.00;;;;5085176;28;20458;-83
2021/03/24 02:57:46;;;;;;;45.88;35.08;;;2.40;64.70;4.10;101415.00;;;;5086291;28;20452;-82
2021/03/24 03:00:18;;;;;;;50.40;35.97;;;2.40;64.60;4.10;101404.00;;;;5102129;28;21069;-83
2021/03/24 03:02:52;;;;;;;50.22;36.30;;;2.40;64.20;4.10;101417.00;;;;5085527;28;20529;-81
2021/03/24 03:05:26;;;;;;;48.15;35.75;;;2.40;64.00;4.10;101408.00;;;;5086505;28;20424;-82
2021/03/24 03:08:02;;;;;;;48.15;35.70;;;2.30;64.40;4.00;67143.00;;;;5086434;28;20951;-83
2021/03/24 03:10:36;;;;;;;44.65;34.25;;;2.40;65.30;4.00;101420.00;;;;5085241;28;20437;-82
2021/03/24 03:13:14;;;;;;;46.70;34.90;;;2.40;65.10;4.00;101408.00;;;;5100136;28;20446;-83
2021/03/24 03:15:47;;;;;;;49.33;35.38;;;2.40;65.10;4.00;101406.00;;;;5083482;28;20429;-80
2021/03/24 03:18:22;;;;;;;44.63;30.77;;;2.40;65.00;3.70;101417.00;;;;5085068;28;20219;-81
2021/03/24 03:20:57;;;;;;;48.73;29.27;;;2.20;65.80;3.60;101402.00;;;;5082363;28;20469;-81
2021/03/24 03:23:28;;;;;;;46.53;29.13;;;2.00;66.80;3.50;101401.00;;;;5085556;28;20456;-81
2021/03/24 03:26:03;;;;;;;42.20;29.33;;;1.80;67.80;3.40;101406.00;;;;5090846;28;20526;-79
2021/03/24 03:28:32;;;;;;;44.53;27.93;;;1.70;68.70;3.40;101395.00;;;;5099231;28;20493;-83
2021/03/24 03:31:01;;;;;;;46.17;29.07;;;1.60;69.20;3.40;101407.00;;;;5110499;28;20477;-83
2021/03/24 03:33:35;;;;;;;40.20;27.30;;;1.70;70.30;3.30;101415.00;;;;5108885;28;20832;-83
2021/03/24 03:36:04;;;;;;;51.47;31.27;;;1.60;70.30;3.30;101409.00;;;;5099364;28;20453;-82
2021/03/24 03:38:34;;;;;;;34.83;25.90;;;1.60;70.40;3.30;101413.00;;;;5098096;28;20545;-82
2021/03/24 03:41:06;;;;;;;44.13;28.30;;;1.60;71.30;3.30;101417.00;;;;5104711;28;20870;-81
2021/03/24 03:43:36;;;;;;;47.78;34.08;;;1.60;71.70;3.50;101417.00;;;;5086642;28;20479;-82
2021/03/24 03:46:05;;;;;;;49.70;33.88;;;1.70;71.50;3.60;101401.00;;;;5097847;28;20448;-81
2021/03/24 03:48:33;;;;;;;53.08;34.58;;;2.00;70.90;3.70;101411.00;;;;5080988;28;21019;-81
2021/03/24 03:51:04;;;;;;;46.47;32.95;;;2.00;69.60;3.70;101407.00;;;;5083088;28;20930;-83
2021/03/24 03:53:39;;;;;;;44.28;31.83;;;2.00;68.60;217.30;158261.00;;;;5086249;28;20463;-81
2021/03/24 03:56:14;;;;;;;43.80;26.83;;;2.10;68.10;3.50;101403.00;;;;5086420;28;20283;-82
2021/03/24 03:58:48;;;;;;;46.00;29.92;;;1.90;67.90;3.60;67060.00;;;;5084623;28;20779;-82
2021/03/24 04:01:21;;;;;;;43.78;30.38;;;1.90;68.50;3.70;101411.00;;;;5097704;28;20492;-83
2021/03/24 04:03:55;;;;;;;51.45;33.33;;;2.00;68.30;3.70;101417.00;;;;5076617;28;20469;-81
2021/03/24 04:06:27;;;;;;;45.10;32.17;;;1.90;67.00;3.70;101400.00;;;;5080772;28;20414;-83
2021/03/24 04:08:56;;;;;;;44.47;30.80;;;2.00;67.10;3.70;101404.00;;;;5081160;28;20439;-84
2021/03/24 04:11:28;;;;;;;49.30;32.72;;;2.00;67.20;3.60;101407.00;;;;5084316;28;20402;-83
2021/03/24 04:13:59;;;;;;;50.15;33.53;;;2.00;66.50;52.70;158231.00;;;;5085959;28;20423;-83
2021/03/24 04:16:27;;;;;;;47.90;30.92;;;2.00;66.60;217.30;158225.00;;;;5095075;28;20419;-85
2021/03/24 04:19:02;;;;;;;52.22;34.25;;;2.00;66.40;52.70;158209.00;;;;5110047;28;20474;-85
2021/03/24 04:21:32;;;;;;;50.78;33.80;;;1.90;66.60;52.70;158170.00;;;;5105051;28;20561;-85
2021/03/24 04:24:05;;;;;;;49.63;32.60;;;1.80;66.30;217.30;158164.00;;;;5097735;28;20806;-84
2021/03/24 04:26:36;;;;;;;50.92;34.42;;;1.80;66.80;3.50;101416.00;;;;5092710;28;20429;-84
2021/03/24 04:29:12;;;;;;;50.20;33.00;;;1.80;67.50;3.50;101393.00;;;;5090761;28;20424;-83
2021/03/24 04:31:48;;;;;;;48.05;33.20;;;1.80;68.30;217.30;158160.00;;;;5089384;28;20410;-84
2021/03/24 04:34:17;;;;;;;49.22;33.25;;;1.90;68.40;3.50;101397.00;;;;5091469;28;20416;-85
2021/03/24 04:36:54;;;;;;;46.85;31.75;;;1.90;68.20;3.50;101408.00;;;;5090581;28;20546;-84
2021/03/24 04:39:30;;;;;;;48.08;32.78;;;1.90;68.20;3.50;101412.00;;;;5094807;28;20453;-82
2021/03/24 04:42:00;;;;;;;47.15;32.15;;;1.90;68.10;3.50;101418.00;;;;5079243;28;20489;-83
2021/03/24 04:44:36;;;;;;;49.17;33.13;;;1.90;68.00;3.50;101411.00;;;;5079063;28;20441;-83
2021/03/24 04:47:13;;;;;;;48.38;32.10;;;1.80;67.50;3.50;101422.00;;;;5080360;28;20424;-84
2021/03/24 04:49:48;;;;;;;48.78;32.85;;;1.90;67.70;3.40;67008.00;;;;5094889;28;20477;-84
2021/03/24 04:52:17;;;;;;;48.75;33.25;;;1.80;67.20;3.40;101405.00;;;;5098908;28;20440;-85
2021/03/24 04:54:47;;;;;;;48.85;32.97;;;1.80;67.10;3.40;101419.00;;;;5104968;28;20421;-86
2021/03/24 04:57:18;;;;;;;53.23;34.73;;;1.80;67.50;3.40;101420.00;;;;5080787;28;20460;-84
2021/03/24 04:59:51;;;;;;;50.00;34.63;;;1.70;68.20;3.30;101422.00;;;;5085108;28;20494;-84
2021/03/24 05:02:24;;;;;;;49.65;33.30;;;1.70;68.00;3.30;66990.00;;;;5094214;28;20445;-85
2021/03/24 05:05:01;;;;;;;48.80;33.57;;;1.80;68.30;3.40;101416.00;;;;5101158;28;20514;-84
2021/03/24 05:07:37;;;;;;;48.93;32.80;;;1.70;67.90;3.30;101417.00;;;;5100023;28;20443;-84
2021/03/24 05:10:11;;;;;;;48.90;33.33;;;1.70;67.70;3.30;101415.00;;;;5105378;28;20424;-85
2021/03/24 05:12:45;;;;;;;52.80;33.55;;;1.70;67.80;3.30;101418.00;;;;5108553;28;20402;-82
2021/03/24 05:15:20;;;;;;;58.47;33.22;;;1.70;68.40;3.30;101416.00;;;;5089088;28;20406;-82
2021/03/24 05:17:50;;;;;;;52.28;34.35;;;1.70;67.50;3.30;101413.00;;;;5088429;28;20510;-82
2021/03/24 05:20:25;;;;;;;52.25;34.92;;;1.60;67.20;3.30;101412.00;;;;5084168;28;20416;-82
2021/03/24 05:22:53;;;;;;;54.33;34.65;;;1.60;67.60;3.30;101414.00;;;;5100349;28;20426;-82
2021/03/24 05:25:25;;;;;;;52.53;34.80;;;1.70;67.60;3.30;101422.00;;;;5084190;28;20417;-83
2021/03/24 05:27:59;;;;;;;50.30;34.08;;;1.60;67.40;3.30;101418.00;;;;5085274;28;20484;-85
2021/03/24 05:30:31;;;;;;;53.83;35.55;;;1.60;67.40;3.30;101432.00;;;;5083058;28;20438;-82
2021/03/24 05:33:04;;;;;;;48.63;35.05;;;1.60;67.60;3.30;101436.00;;;;5100959;28;20471;-83
2021/03/24 05:35:42;;;;;;;57.40;35.55;;;1.60;68.00;3.40;101430.00;;;;5097664;28;20408;-83
2021/03/24 05:38:19;;;;;;;54.30;36.43;;;1.70;68.20;3.40;101428.00;;;;5082927;28;20411;-85
2021/03/24 05:41:05;;;;;;;54.97;35.90;;;1.70;68.60;3.50;101436.00;;;;5083463;28;20986;-83
2021/03/24 05:44:14;;;;;;;53.85;35.50;;;1.80;68.70;3.50;67038.00;;;;5070983;28;20401;-83
2021/03/24 05:47:19;;;;;;;45.80;32.40;;;1.90;68.70;3.60;101434.00;;;;5032669;28;20508;-83
2021/03/24 05:49:59;;;;;;;51.53;35.05;;;2.00;68.10;3.60;101438.00;;;;5092657;28;20716;-81
2021/03/24 05:52:48;;;;;;;49.33;33.45;;;2.00;67.50;3.70;101430.00;;;;5087427;28;20950;-83
2021/03/24 05:55:29;;;;;;;53.65;33.50;;;2.10;67.00;217.30;158298.00;;;;5089297;28;20433;-82
2021/03/24 05:58:10;;;;;;;50.00;32.72;;;2.10;66.30;3.80;101448.00;;;;5088268;28;20932;-83
2021/03/24 06:00:45;;;;;;;47.20;33.60;;;2.10;66.30;3.90;67127.00;;;;5119697;28;21085;-84
2021/03/24 06:03:43;;;;;;;48.38;34.30;;;2.20;67.00;4.00;101446.00;;;;5105027;28;20412;-83
2021/03/24 06:07:03;;;;;;;50.35;34.80;;;2.20;66.60;4.10;101436.00;;;;5105768;28;20427;-81
2021/03/24 06:09:46;;;;;;;51.72;34.20;;;2.30;66.10;4.10;101439.00;;;;5075284;28;20449;-81
2021/03/24 06:13:14;;;;;;;48.70;33.53;;;2.40;66.30;4.30;101447.00;;;;5070288;28;20440;-81
2021/03/24 06:16:13;;;;;;;47.05;32.85;;;2.50;66.00;4.40;101456.00;;;;5087053;28;20429;-82
2021/03/24 06:18:52;;;;;;;53.88;33.67;;;2.60;65.10;4.40;101451.00;;;;5101197;28;20419;-84
2021/03/24 06:21:30;;;;;;;49.65;32.35;;;2.60;64.70;4.50;101440.00;;;;5088869;28;20474;-82
2021/03/24 06:24:31;;;;;;;48.55;33.83;;;2.70;64.40;4.60;101438.00;;;;5091597;28;20417;-84
2021/03/24 06:27:28;;;;;;;46.10;32.93;;;2.80;63.80;4.70;101441.00;;;;5096184;28;20414;-84
2021/03/24 06:30:26;;;;;;;47.17;34.13;;;2.90;63.80;4.80;101442.00;;;;5111501;28;20431;-83
2021/03/24 06:33:51;;;;;;;44.55;33.33;;;3.00;63.80;5.00;101437.00;;;;5087172;28;20995;-84
2021/03/24 06:36:47;;;;;;;48.63;31.02;;;3.10;63.20;5.00;101443.00;;;;5000947;28;20469;-81
2021/03/24 06:40:08;;;;;;;44.60;32.05;;;3.10;62.90;5.10;101438.00;;;;5087735;28;20411;-83
2021/03/24 06:42:51;;;;;;;43.70;30.40;;;3.10;62.90;5.10;101439.00;;;;5096237;28;20443;-83
2021/03/24 06:45:42;;;;;;;42.15;30.77;;;3.40;63.30;5.30;101428.00;;;;5091766;28;20468;-81
2021/03/24 06:48:49;;;;;;;43.20;31.92;;;3.60;61.30;5.30;101431.00;;;;5090083;28;20428;-83
2021/03/24 06:52:20;;;;;;;43.13;30.55;;;3.70;59.70;5.50;101419.00;;;;5106715;28;20437;-81
2021/03/24 06:55:54;;;;;;;40.42;31.02;;;3.90;58.60;5.60;101435.00;;;;5087522;28;20447;-85
2021/03/24 06:59:23;;;;;;;45.13;31.60;;;3.80;58.20;5.70;101441.00;;;;5092901;28;20411;-85
2021/03/24 07:02:18;;;;;;;41.63;30.77;;;3.90;58.20;5.80;101438.00;;;;5085105;28;20473;-84
2021/03/24 07:05:14;;;;;;;41.70;30.92;;;4.00;58.20;217.30;158935.00;;;;5099263;28;20457;-83
2021/03/24 07:08:28;;;;;;;44.30;30.80;;;4.10;58.00;6.00;101436.00;;;;5005172;28;20456;-81
2021/03/24 07:11:18;;;;;;;45.05;32.13;;;4.30;57.10;6.10;101442.00;;;;4994939;28;20533;-83
2021/03/24 07:14:24;;;;;;;46.45;31.40;;;4.30;56.50;6.10;101441.00;;;;5068532;22;20440;-81
2021/03/24 07:17:34;;;;;;;44.95;31.33;;;4.40;56.20;6.20;101442.00;;;;5029623;28;20472;-81
2021/03/24 07:20:51;;;;;;;38.83;28.65;;;4.50;56.00;6.40;67668.00;;;;5058094;28;20418;-83
2021/03/24 07:24:04;;;;;;;43.03;31.95;;;4.70;55.60;6.50;101450.00;;;;5045740;28;20529;-81
2021/03/24 07:26:55;;;;;;;36.95;28.92;;;4.80;54.00;6.70;101440.00;;;;5056294;28;20441;-82
2021/03/24 07:29:38;;;;;;;38.80;30.20;;;5.00;52.90;6.80;67769.00;;;;5062904;28;20436;-81
2021/03/24 07:32:14;;;;;;;41.35;30.20;;;5.10;52.90;6.90;101458.00;;;;5078477;28;20472;-85
2021/03/24 07:35:06;;;;;;;40.42;30.63;;;5.20;51.50;7.00;101451.00;;;;5046090;28;20420;-82
2021/03/24 07:38:41;;;;;;;38.25;30.35;;;5.20;51.50;7.00;101440.00;;;;5080914;28;20425;-84
2021/03/24 07:41:50;;;;;;;39.55;28.75;;;5.30;51.40;7.20;67853.00;;;;5083687;28;20425;-83
2021/03/24 07:45:01;;;;;;;41.53;30.75;;;5.70;50.00;7.30;101455.00;;;;5046524;28;20425;-85
2021/03/24 07:48:27;;;;;;;39.00;31.02;;;5.80;47.30;7.40;101448.00;;;;5042826;28;20418;-83
2021/03/24 07:51:06;;;;;;;40.53;30.15;;;5.80;47.10;7.50;101457.00;;;;4993822;28;20533;-84
2021/03/24 07:53:45;;;;;;;43.10;30.65;;;5.90;47.80;217.30;159946.00;;;;5059648;28;20436;-83
2021/03/24 07:56:26;;;;;;;38.42;29.65;;;6.00;47.10;7.80;101454.00;;;;5088282;28;20415;-83
2021/03/24 07:59:16;;;;;;;38.90;29.23;;;6.10;45.70;7.90;101452.00;;;;5084105;28;20422;-81
2021/03/24 08:02:08;;;;;;;41.10;30.10;;;6.40;44.40;8.00;101447.00;;;;5024910;28;21360;-81
2021/03/24 08:05:03;;;;;;;40.55;30.40;;;6.50;44.40;8.10;101452.00;;;;5050654;28;20440;-82
2021/03/24 08:07:39;;;;;;;40.45;30.35;;;6.70;42.90;217.30;160212.00;;;;5067328;28;20472;-81
2021/03/24 08:10:37;;;;;;;47.17;30.45;;;6.80;42.60;8.30;101456.00;;;;5044383;28;20431;-84
2021/03/24 08:13:43;;;;;;;38.53;28.23;;;6.90;41.30;8.40;101454.00;;;;5048680;28;20867;-83
2021/03/24 08:16:43;;;;;;;38.10;26.97;;;7.10;41.00;8.30;101434.00;;;;5039083;28;20670;-84
2021/03/24 08:19:57;;;;;;;39.22;29.73;;;7.10;39.90;8.50;101456.00;;;;5049267;28;20442;-84
2021/03/24 08:22:52;;;;;;;39.85;30.42;;;7.10;39.20;8.50;101466.00;;;;5032671;28;20476;-84
2021/03/24 08:25:47;;;;;;;42.47;31.92;;;7.40;37.60;8.50;101460.00;;;;5046701;28;20451;-83
2021/03/24 08:28:33;;;;;;;41.08;30.65;;;7.50;35.80;217.30;160408.00;;;;5054914;28;20421;-82
2021/03/24 08:31:28;;;;;;;42.72;30.67;;;7.50;36.10;8.80;101457.00;;;;5069666;28;20456;-81
2021/03/24 08:34:14;;;;;;;40.58;30.48;;;7.60;35.70;8.90;101463.00;;;;5074641;28;20431;-83
2021/03/24 08:37:13;;;;;;;38.67;28.00;;;7.80;34.40;8.90;101447.00;;;;5083987;28;21067;-82
2021/03/24 08:40:10;;;;;;;42.63;27.00;;;7.80;34.80;9.00;101451.00;;;;5052229;28;20497;-83
2021/03/24 08:43:36;;;;;;;40.55;30.27;;;7.90;38.50;9.30;101436.00;;;;5064152;28;20412;-81
2021/03/24 08:46:16;;;;;;;42.42;32.05;;;8.20;34.10;9.40;101428.00;;;;5043369;28;20990;-82
2021/03/24 08:48:49;;;;;;;37.88;30.63;;;8.40;30.20;9.50;101432.00;;;;5079225;28;20479;-81
2021/03/24 08:51:43;;;;;;;38.00;31.08;;;8.50;29.20;9.60;101430.00;;;;5068136;28;20431;-82
2021/03/24 08:54:53;;;;;;;39.53;30.10;;;8.50;28.00;9.70;101418.00;;;;5045675;28;20416;-81
2021/03/24 08:58:07;;;;;;;40.35;30.08;;;8.60;28.50;9.80;101433.00;;;;5049552;28;20424;-83
2021/03/24 09:00:48;;;;;;;38.55;30.50;;;8.80;28.10;9.90;101421.00;;;;5023761;28;20451;-83
2021/03/24 09:03:34;;;;;;;39.55;30.98;;;8.90;28.10;9.90;101413.00;;;;5088064;28;20421;-82
2021/03/24 09:06:13;;;;;;;43.60;31.23;;;9.00;26.20;10.00;101415.00;;;;5088099;28;20477;-86
2021/03/24 09:08:49;;;;;;;41.20;31.10;;;9.00;25.90;10.10;101408.00;;;;5089933;28;20846;-82
2021/03/24 09:11:43;;;;;;;37.63;28.98;;;9.20;25.30;10.30;101418.00;;;;5067589;28;20510;-82
2021/03/24 09:14:24;;;;;;;37.00;29.17;;;9.30;24.70;10.30;101418.00;;;;5084680;28;20450;-81
2021/03/24 09:17:35;;;;;;;37.58;28.90;;;9.40;22.90;10.50;101427.00;;;;5051644;28;20589;-82
2021/03/24 09:20:41;;;;;;;41.37;30.67;;;9.40;23.40;10.50;101412.00;;;;5100261;28;20483;-82
2021/03/24 09:24:19;;;;;;;36.47;29.23;;;9.60;22.60;10.70;101423.00;;;;5067529;28;20450;-83
2021/03/24 09:27:55;;;;;;;33.58;28.00;;;9.80;20.80;10.80;101414.00;;;;5081143;28;20427;-81
2021/03/24 09:31:13;;;;;;;34.93;28.70;;;9.80;20.60;10.80;101408.00;;;;5018076;28;20421;-81
2021/03/24 09:33:53;;;;;;;34.33;26.98;;;10.00;18.40;11.00;101416.00;;;;5101622;28;20485;-81
2021/03/24 09:37:04;;;;;;;32.70;26.70;;;10.10;18.10;11.00;101412.00;;;;5091784;28;20485;-82
2021/03/24 09:39:41;;;;;;;32.35;26.23;;;10.30;17.20;11.20;101420.00;;;;5039943;28;20427;-80
2021/03/24 09:42:20;;;;;;;34.60;26.90;;;10.40;16.30;11.20;101413.00;;;;5063658;28;20413;-83
2021/03/24 09:45:05;;;;;;;37.15;27.20;;;10.40;15.60;11.40;101409.00;;;;5071983;28;20429;-80
2021/03/24 09:47:53;;;;;;;32.03;25.55;;;10.60;16.10;11.40;101411.00;;;;5049473;28;20416;-79
2021/03/24 09:50:29;;;;;;;34.40;25.90;;;10.70;14.50;217.30;161622.00;;;;5053524;28;20479;-80
2021/03/24 09:53:01;;;;;;;30.88;25.23;;;10.80;13.60;11.50;101400.00;;;;5086768;28;20517;-79
2021/03/24 09:55:37;;;;;;;29.05;25.10;;;10.80;13.50;11.50;101401.00;;;;5052643;28;20424;-81
2021/03/24 09:58:57;;;;;;;32.22;25.83;;;10.80;12.90;11.50;101398.00;;;;5086355;28;20433;-81
2021/03/24 10:01:55;;;;;;;33.15;26.50;;;10.70;12.80;11.70;101395.00;;;;5055543;28;20481;-79
2021/03/24 10:04:49;;;;;;;35.72;28.10;;;10.70;14.20;11.80;101399.00;;;;5069428;28;20474;-81
2021/03/24 10:07:23;;;;;;;41.65;28.60;;;11.00;14.50;12.10;101374.00;;;;5055117;28;20487;-82
2021/03/24 10:10:06;;;;;;;33.45;27.13;;;11.20;13.60;12.20;101379.00;;;;5085963;28;20409;-81
2021/03/24 10:12:42;;;;;;;31.65;27.42;;;11.30;12.30;12.20;101375.00;;;;5076732;28;20544;-81
2021/03/24 10:15:28;;;;;;;32.00;26.98;;;11.30;12.00;52.70;161938.00;;;;5070702;28;20499;-82
2021/03/24 10:18:07;;;;;;;31.27;25.15;;;11.50;11.70;12.30;101372.00;;;;5069055;28;20850;-82
2021/03/24 10:20:44;;;;;;;31.75;25.27;;;11.50;10.30;12.20;101372.00;;;;5058150;28;20436;-82
2021/03/24 10:23:17;;;;;;;31.42;24.40;;;11.50;10.50;12.40;101366.00;;;;5071887;28;20479;-80
2021/03/24 10:25:49;;;;;;;28.83;22.93;;;11.60;10.30;12.40;101382.00;;;;5094670;28;20450;-81
2021/03/24 10:28:24;;;;;;;30.58;24.13;;;11.70;8.80;12.60;101385.00;;;;5095131;28;20419;-81
2021/03/24 10:30:59;;;;;;;28.35;23.48;;;11.80;9.50;12.70;101378.00;;;;5072044;28;20933;-80
2021/03/24 10:33:35;;;;;;;28.05;22.10;;;11.90;9.10;12.80;101371.00;;;;5055188;28;20467;-80
2021/03/24 10:36:16;;;;;;;28.45;23.63;;;12.00;8.10;12.80;101377.00;;;;5066510;28;20429;-82
2021/03/24 10:38:51;;;;;;;27.75;23.02;;;12.10;7.50;12.90;101367.00;;;;5068490;28;20424;-81
2021/03/24 10:41:46;;;;;;;27.05;23.30;;;12.20;7.80;13.00;101362.00;;;;5084771;28;20806;-80
2021/03/24 10:44:21;;;;;;;24.95;21.67;;;12.20;7.20;13.00;101359.00;;;;5076128;28;20434;-80
2021/03/24 10:47:14;;;;;;;30.02;21.67;;;12.30;6.80;13.20;101348.00;;;;5052951;28;20424;-79
2021/03/24 10:49:54;;;;;;;27.60;22.10;;;12.50;6.60;13.30;101361.00;;;;5055598;28;20458;-82
2021/03/24 10:52:26;;;;;;;26.38;21.60;;;12.70;6.30;13.40;101339.00;;;;5082470;28;20428;-83
2021/03/24 10:55:01;;;;;;;26.23;22.30;;;12.80;5.00;13.40;101348.00;;;;5096059;28;20480;-82
2021/03/24 10:57:49;;;;;;;24.42;21.52;;;12.80;4.20;13.50;101356.00;;;;5095108;28;20447;-80
2021/03/24 11:00:26;;;;;;;26.80;22.48;;;12.80;4.10;13.60;101346.00;;;;5059534;28;20900;-83
2021/03/24 11:03:02;;;;;;;24.55;20.52;;;12.90;4.10;13.70;101355.00;;;;5081460;28;20413;-82
2021/03/24 11:05:40;;;;;;;27.23;21.08;;;13.00;3.30;13.70;101332.00;;;;5085206;28;20438;-82
2021/03/24 11:08:26;;;;;;;26.00;21.20;;;13.10;3.40;13.80;101337.00;;;;5070788;28;20415;-81
2021/03/24 11:11:00;;;;;;;23.92;20.42;;;13.10;2.70;13.90;101333.00;;;;5051198;28;20427;-80
2021/03/24 11:13:33;;;;;;;24.58;20.70;;;13.40;2.70;13.80;101326.00;;;;5071168;28;20425;-81
2021/03/24 11:16:19;;;;;;;27.13;21.40;;;13.30;2.20;13.90;101333.00;;;;5043739;28;20822;-80
2021/03/24 11:18:50;;;;;;;25.17;20.60;;;13.20;2.30;14.10;101335.00;;;;5042948;28;20404;-80
2021/03/24 11:21:33;;;;;;;25.35;20.90;;;13.30;2.40;14.10;101320.00;;;;5042252;28;20431;-81
2021/03/24 11:24:20;;;;;;;24.83;21.35;;;13.50;1.60;14.30;101312.00;;;;5041810;28;20416;-81
2021/03/24 11:27:13;;;;;;;26.17;20.63;;;13.60;1.40;14.50;101338.00;;;;5058881;28;21041;-82
2021/03/24 11:30:04;;;;;;;24.35;20.88;;;13.70;1.30;14.40;101335.00;;;;5042883;28;20429;-83
2021/03/24 11:32:40;;;;;;;24.50;20.47;;;13.80;1.00;14.50;101323.00;;;;5074886;28;20433;-82
2021/03/24 11:35:21;;;;;;;26.48;20.50;;;13.80;1.00;14.50;101309.00;;;;5052251;28;20421;-85
2021/03/24 11:38:01;;;;;;;23.00;19.90;;;13.80;1.00;14.60;101316.00;;;;5066137;28;20415;-84
2021/03/24 11:40:44;;;;;;;23.88;20.75;;;13.90;1.00;14.50;101308.00;;;;5073325;28;20973;-82
2021/03/24 11:43:20;;;;;;;24.52;20.70;;;13.90;1.00;14.60;101310.00;;;;5048244;28;20453;-80
2021/03/24 11:45:48;;;;;;;26.70;20.90;;;13.90;1.00;14.60;101312.00;;;;5059614;28;20418;-81
2021/03/24 11:49:05;;;;;;;23.85;20.88;;;14.00;1.00;14.70;101301.00;;;;5081361;28;20892;-82